createdAt,value
2018-09-04T00:00:45.715Z,89.77
2018-09-04T00:01:45.764Z,90.48
2018-09-04T00:02:45.718Z,89.06
2018-09-04T00:03:45.683Z,88.86
2018-09-04T00:04:45.688Z,88.86
2018-09-04T00:05:45.667Z,88.56
2018-09-04T00:06:45.654Z,89.57
2018-09-04T00:07:45.660Z,90.78
2018-09-04T00:08:45.658Z,90.37
2018-09-04T00:09:45.621Z,90.07
2018-09-04T00:10:45.606Z,90.58
2018-09-04T00:11:45.630Z,89.97
2018-09-04T00:12:45.582Z,88.96
2018-09-04T00:13:45.574Z,89.47
2018-09-04T00:14:45.577Z,89.37
2018-09-04T00:15:45.546Z,88.76
2018-09-04T00:16:45.532Z,89.17
2018-09-04T00:17:45.540Z,90.48
2018-09-04T00:18:45.528Z,91.58
2018-09-04T00:19:45.502Z,91.83
2018-09-04T00:20:45.489Z,90.98
2018-09-04T00:21:45.484Z,91.18
2018-09-04T00:22:45.467Z,91.63
2018-09-04T00:23:45.490Z,91.49
2018-09-04T00:24:45.456Z,90.58
2018-09-04T00:25:45.436Z,90.01
2018-09-04T00:26:45.422Z,89.91
2018-09-04T00:27:45.420Z,90.62
2018-09-04T00:28:45.425Z,91.33
2018-09-04T00:29:45.403Z,91.18
2018-09-04T00:30:45.381Z,92.94
2018-09-04T00:31:45.374Z,92.83
2018-09-04T00:32:45.375Z,93.04
2018-09-04T00:33:45.347Z,92.63
2018-09-04T00:34:45.375Z,93.14
2018-09-04T00:35:45.327Z,93.04
2018-09-04T00:36:45.329Z,92.33
2018-09-04T00:37:45.302Z,91.33
2018-09-04T00:38:45.290Z,91.37
2018-09-04T00:39:45.277Z,91.33
2018-09-04T00:40:45.287Z,91.17
2018-09-04T00:41:45.256Z,91.13
2018-09-04T00:42:45.265Z,90.42
2018-09-04T00:43:45.239Z,90.62
2018-09-04T00:44:45.225Z,90.77
2018-09-04T00:45:45.233Z,90.66
2018-09-04T00:46:45.216Z,91.83
2018-09-04T00:47:45.187Z,91.42
2018-09-04T00:48:45.211Z,91.17
2018-09-04T00:49:45.163Z,91.77
2018-09-04T00:50:45.177Z,92.94
2018-09-04T00:51:45.150Z,92.74
2018-09-04T00:52:45.136Z,91.93
2018-09-04T00:53:45.125Z,91.33
2018-09-04T00:54:45.144Z,91.63
2018-09-04T00:55:45.117Z,91.02
2018-09-04T00:56:45.090Z,90.52
2018-09-04T00:57:45.085Z,90.62
2018-09-04T00:58:45.064Z,90.62
2018-09-04T00:59:45.066Z,90.32
2018-09-04T01:00:45.054Z,89.81
2018-09-04T01:01:45.054Z,90.72
2018-09-04T01:02:45.020Z,91.33
2018-09-04T01:03:45.013Z,90.36
2018-09-04T01:04:45.016Z,90.62
2018-09-04T01:05:44.985Z,90.62
2018-09-04T01:06:45.012Z,90.56
2018-09-04T01:07:44.962Z,90.01
2018-09-04T01:08:44.974Z,90.72
2018-09-04T01:09:44.942Z,89.86
2018-09-04T01:10:44.937Z,89.61
2018-09-04T01:11:44.922Z,89.71
2018-09-04T01:12:44.917Z,89.91
2018-09-04T01:13:44.940Z,88.90
2018-09-04T01:14:44.895Z,88.70
2018-09-04T01:15:44.879Z,89.01
2018-09-04T01:16:44.893Z,89.41
2018-09-04T01:17:44.868Z,89.15
2018-09-04T01:18:44.858Z,88.40
2018-09-04T01:19:44.858Z,89.51
2018-09-04T01:20:44.822Z,90.01
2018-09-04T01:21:44.814Z,90.72
2018-09-04T01:22:44.798Z,89.61
2018-09-04T01:23:44.791Z,90.22
2018-09-04T01:24:44.795Z,89.61
2018-09-04T01:25:44.790Z,88.50
2018-09-04T01:26:44.759Z,89.91
2018-09-04T01:27:44.763Z,89.81
2018-09-04T01:28:44.737Z,89.41
2018-09-04T01:29:44.726Z,89.81
2018-09-04T01:30:44.709Z,89.31
2018-09-04T01:31:44.729Z,90.82
2018-09-04T01:32:44.687Z,90.52
2018-09-04T01:33:44.695Z,90.46
2018-09-04T01:34:44.705Z,89.55
2018-09-04T01:35:44.694Z,91.13
2018-09-04T01:36:44.646Z,92.13
2018-09-04T01:37:44.638Z,91.83
2018-09-04T01:38:44.623Z,91.33
2018-09-04T01:39:44.616Z,91.42
2018-09-04T01:40:44.623Z,91.63
2018-09-04T01:41:44.590Z,91.73
2018-09-04T01:42:44.582Z,91.73
2018-09-04T01:43:44.569Z,91.93
2018-09-04T01:44:44.559Z,91.83
2018-09-04T01:45:44.547Z,91.13
2018-09-04T01:46:44.572Z,90.66
2018-09-04T01:47:44.520Z,91.33
2018-09-04T01:48:44.512Z,89.71
2018-09-04T01:49:44.514Z,89.41
2018-09-04T01:50:44.494Z,90.01
2018-09-04T01:51:44.475Z,90.36
2018-09-04T01:52:44.480Z,89.86
2018-09-04T01:53:44.458Z,89.35
2018-09-04T01:54:44.448Z,90.66
2018-09-04T01:55:44.449Z,89.86
2018-09-04T01:56:44.423Z,89.95
2018-09-04T01:57:44.437Z,89.45
2018-09-04T01:58:44.402Z,89.05
2018-09-04T01:59:44.393Z,89.75
2018-09-04T02:01:57.569Z,90.56
2018-09-04T02:02:57.161Z,89.41
2018-09-04T02:03:57.063Z,88.65
2018-09-04T02:04:57.101Z,89.35
2018-09-04T02:05:57.026Z,90.52
2018-09-04T02:06:57.045Z,91.47
2018-09-04T02:07:57.001Z,92.58
2018-09-04T02:08:57.006Z,92.47
2018-09-04T02:09:56.996Z,91.27
2018-09-04T02:10:56.969Z,91.57
2018-09-04T02:11:56.973Z,91.67
2018-09-04T02:12:56.950Z,91.67
2018-09-04T02:13:56.973Z,91.77
2018-09-04T02:14:56.921Z,91.77
2018-09-04T02:15:56.913Z,92.38
2018-09-04T02:16:56.922Z,92.13
2018-09-04T02:17:56.991Z,91.87
2018-09-04T02:18:56.884Z,91.57
2018-09-04T02:19:56.883Z,90.32
2018-09-04T02:20:56.859Z,91.67
2018-09-04T02:21:56.844Z,91.13
2018-09-04T02:22:56.839Z,91.47
2018-09-04T02:23:56.818Z,90.97
2018-09-04T02:24:56.841Z,91.22
2018-09-04T02:25:56.798Z,90.72
2018-09-04T02:26:56.785Z,91.47
2018-09-04T02:27:56.772Z,91.27
2018-09-04T02:28:56.784Z,91.02
2018-09-04T02:29:56.749Z,91.63
2018-09-04T02:30:56.760Z,90.66
2018-09-04T02:31:56.726Z,90.66
2018-09-04T02:32:56.744Z,91.47
2018-09-04T02:33:56.745Z,91.27
2018-09-04T02:34:56.722Z,91.37
2018-09-04T02:35:56.687Z,91.27
2018-09-04T02:36:56.668Z,90.56
2018-09-04T02:37:56.658Z,91.63
2018-09-04T02:38:56.649Z,90.46
2018-09-04T02:39:56.650Z,90.56
2018-09-04T02:40:56.644Z,90.77
2018-09-04T02:41:56.611Z,90.11
2018-09-04T02:42:56.605Z,90.82
2018-09-04T02:43:56.619Z,90.62
2018-09-04T02:44:56.601Z,91.67
2018-09-04T02:45:56.572Z,91.77
2018-09-04T02:46:56.572Z,92.78
2018-09-04T02:47:56.547Z,92.88
2018-09-04T02:48:56.558Z,92.78
2018-09-04T02:49:56.523Z,92.68
2018-09-04T02:50:56.524Z,92.74
2018-09-04T02:51:56.518Z,93.08
2018-09-04T02:52:56.510Z,92.88
2018-09-04T02:53:56.508Z,92.98
2018-09-04T02:54:56.471Z,93.14
2018-09-04T02:55:56.461Z,92.88
2018-09-04T02:56:56.448Z,92.88
2018-09-04T02:57:56.435Z,92.43
2018-09-04T02:58:56.433Z,91.97
2018-09-04T02:59:56.440Z,92.07
2018-09-04T03:00:56.404Z,91.67
2018-09-04T03:01:56.392Z,92.27
2018-09-04T03:02:56.380Z,92.98
2018-09-04T03:03:56.380Z,92.07
2018-09-04T03:04:56.363Z,91.73
2018-09-04T03:05:56.363Z,92.07
2018-09-04T03:06:56.333Z,91.67
2018-09-04T03:07:56.323Z,92.58
2018-09-04T03:08:56.312Z,92.98
2018-09-04T03:09:56.300Z,91.67
2018-09-04T03:10:56.314Z,91.47
2018-09-04T03:11:56.281Z,90.66
2018-09-04T03:12:56.266Z,90.36
2018-09-04T03:13:56.319Z,91.57
2018-09-04T03:14:56.250Z,91.37
2018-09-04T03:15:56.279Z,90.56
2018-09-04T03:16:56.240Z,90.46
2018-09-04T03:17:56.209Z,90.06
2018-09-04T03:18:56.198Z,89.65
2018-09-04T03:19:56.187Z,89.95
2018-09-04T03:20:56.179Z,91.17
2018-09-04T03:21:56.192Z,91.06
2018-09-04T03:22:56.186Z,91.67
2018-09-04T03:23:56.146Z,91.27
2018-09-04T03:24:56.130Z,91.37
2018-09-04T03:25:56.123Z,91.06
2018-09-04T03:26:56.122Z,91.37
2018-09-04T03:27:56.119Z,91.47
2018-09-04T03:28:56.100Z,91.47
2018-09-04T03:29:56.100Z,91.06
2018-09-04T03:30:56.083Z,90.56
2018-09-04T03:31:56.057Z,90.66
2018-09-04T03:32:56.041Z,90.56
2018-09-04T03:33:56.026Z,91.47
2018-09-04T03:34:56.038Z,91.17
2018-09-04T03:35:56.065Z,91.37
2018-09-04T03:36:56.000Z,90.77
2018-09-04T03:37:56.007Z,90.66
2018-09-04T03:38:55.975Z,90.66
2018-09-04T03:39:55.983Z,90.61
2018-09-04T03:40:55.991Z,91.27
2018-09-04T03:41:55.943Z,91.67
2018-09-04T03:42:55.925Z,91.61
2018-09-04T03:43:55.928Z,93.08
2018-09-04T03:44:55.928Z,93.89
2018-09-04T03:45:55.888Z,93.99
2018-09-04T03:46:55.887Z,93.29
2018-09-04T03:47:55.880Z,91.91
2018-09-04T03:48:55.858Z,92.52
2018-09-04T03:49:55.842Z,91.91
2018-09-04T03:50:55.851Z,92.02
2018-09-04T03:51:55.831Z,91.82
2018-09-04T03:52:55.809Z,91.51
2018-09-04T03:53:55.829Z,92.78
2018-09-04T03:54:55.805Z,92.32
2018-09-04T03:55:55.776Z,92.72
2018-09-04T03:56:55.765Z,93.38
2018-09-04T03:57:55.754Z,93.02
2018-09-04T03:58:55.741Z,89.90
2018-09-04T03:59:55.790Z,91.11
2018-09-04T04:00:55.722Z,93.23
2018-09-04T04:01:55.712Z,92.82
2018-09-04T04:02:55.692Z,91.41
2018-09-04T04:03:55.696Z,91.31
2018-09-04T04:04:55.673Z,92.22
2018-09-04T04:05:55.710Z,91.91
2018-09-04T04:06:55.647Z,92.42
2018-09-04T04:07:55.639Z,91.21
2018-09-04T04:08:55.635Z,91.71
2018-09-04T04:09:55.611Z,92.82
2018-09-04T04:10:55.608Z,92.93
2018-09-04T04:11:55.682Z,92.93
2018-09-04T04:12:55.783Z,92.52
2018-09-04T04:15:07.784Z,91.21
2018-09-04T04:16:07.402Z,92.12
2018-09-04T04:17:07.285Z,91.31
2018-09-04T04:18:07.322Z,91.41
2018-09-04T04:19:07.347Z,90.65
2018-09-04T04:20:07.247Z,90.85
2018-09-04T04:21:07.291Z,91.46
2018-09-04T04:22:07.258Z,91.15
2018-09-04T04:23:07.213Z,91.76
2018-09-04T04:24:07.194Z,91.86
2018-09-04T04:25:07.256Z,91.76
2018-09-04T04:26:07.192Z,91.91
2018-09-04T04:27:07.172Z,91.35
2018-09-04T04:28:07.186Z,91.25
2018-09-04T04:29:07.182Z,92.06
2018-09-04T04:30:07.129Z,92.16
2018-09-04T04:31:07.123Z,91.25
2018-09-04T04:32:07.169Z,92.06
2018-09-04T04:33:07.227Z,91.66
2018-09-04T04:34:07.144Z,92.06
2018-09-04T04:35:07.080Z,91.35
2018-09-04T04:36:07.060Z,90.75
2018-09-04T04:37:07.067Z,91.66
2018-09-04T04:38:07.039Z,91.70
2018-09-04T04:39:07.034Z,90.45
2018-09-04T04:40:07.166Z,90.69
2018-09-04T04:41:07.998Z,90.79
2018-09-04T04:42:07.089Z,91.80
2018-09-04T04:43:06.994Z,91.50
2018-09-04T04:44:07.056Z,91.70
2018-09-04T04:45:07.103Z,91.60
2018-09-04T04:46:06.969Z,91.60
2018-09-04T04:47:06.941Z,90.59
2018-09-04T04:48:06.952Z,89.88
2018-09-04T04:49:06.938Z,90.99
2018-09-04T04:50:06.915Z,91.30
2018-09-04T04:51:07.055Z,90.79
2018-09-04T04:52:07.758Z,89.68
2018-09-04T04:53:07.045Z,91.60
2018-09-04T04:54:07.738Z,91.80
2018-09-04T04:55:07.588Z,91.50
2018-09-04T04:56:06.962Z,91.94
2018-09-04T04:58:18.916Z,92.00
2018-09-04T04:59:18.070Z,92.21
2018-09-04T05:00:18.059Z,91.30
2018-09-04T05:01:18.126Z,92.00
2018-09-04T05:02:18.023Z,92.00
2018-09-04T05:03:18.098Z,91.90
2018-09-04T05:04:20.004Z,91.90
2018-09-04T05:05:17.968Z,93.21
2018-09-04T05:06:18.096Z,92.00
2018-09-04T05:07:18.877Z,92.65
2018-09-04T05:08:18.890Z,93.82
2018-09-04T05:11:49.130Z,92.71
2018-09-04T05:12:48.547Z,93.05
2018-09-04T05:13:48.225Z,92.91
2018-09-04T05:14:48.117Z,91.70
2018-09-04T05:15:48.199Z,93.01
2018-09-04T05:16:48.077Z,92.61
2018-09-04T05:17:48.171Z,93.12
2018-09-04T05:18:48.065Z,92.50
2018-09-04T05:19:48.981Z,92.81
2018-09-04T05:23:29.368Z,92.91
2018-09-04T05:24:29.355Z,92.71
2018-09-04T05:25:29.296Z,91.80
2018-09-04T05:26:29.286Z,92.21
2018-09-04T05:27:29.363Z,92.81
2018-09-04T05:28:29.040Z,92.21
2018-09-04T05:29:29.086Z,93.21
2018-09-04T05:30:29.134Z,92.81
2018-09-04T05:31:29.090Z,92.10
2018-09-04T05:32:29.037Z,92.91
2018-09-04T05:33:29.043Z,92.21
2018-09-04T05:34:29.034Z,91.60
2018-09-04T05:35:28.986Z,91.39
2018-09-04T05:36:28.959Z,91.39
2018-09-04T05:37:28.948Z,91.39
2018-09-04T05:38:29.022Z,91.90
2018-09-04T05:39:28.925Z,91.50
2018-09-04T05:40:28.914Z,91.50
2018-09-04T05:41:28.906Z,91.60
2018-09-04T05:42:28.893Z,91.60
2018-09-04T05:43:28.896Z,91.70
2018-09-04T05:44:28.875Z,92.10
2018-09-04T05:45:28.859Z,92.05
2018-09-04T05:46:28.895Z,92.91
2018-09-04T05:47:28.831Z,92.91
2018-09-04T05:48:28.922Z,92.21
2018-09-04T05:49:28.839Z,93.21
2018-09-04T05:50:28.839Z,93.01
2018-09-04T05:51:28.796Z,91.50
2018-09-04T05:52:28.788Z,92.71
2018-09-04T05:53:28.773Z,93.21
2018-09-04T05:54:28.777Z,92.50
2018-09-04T05:55:28.765Z,91.90
2018-09-04T05:56:28.741Z,91.70
2018-09-04T05:57:28.742Z,91.70
2018-09-04T05:58:28.773Z,92.21
2018-09-04T05:59:28.697Z,92.06
2018-09-04T06:00:28.691Z,93.41
2018-09-04T06:01:28.710Z,93.12
2018-09-04T06:02:28.666Z,93.41
2018-09-04T06:03:28.716Z,92.30
2018-09-04T06:04:28.648Z,92.77
2018-09-04T06:05:28.639Z,93.07
2018-09-04T06:06:28.639Z,93.27
2018-09-04T06:07:28.632Z,93.17
2018-09-04T06:08:28.605Z,92.57
2018-09-04T06:09:28.612Z,93.07
2018-09-04T06:10:28.587Z,92.97
2018-09-04T06:11:28.620Z,92.36
2018-09-04T06:12:28.592Z,92.52
2018-09-04T06:13:28.551Z,92.97
2018-09-04T06:14:28.598Z,92.62
2018-09-04T06:15:28.552Z,92.72
2018-09-04T06:16:28.514Z,91.71
2018-09-04T06:17:28.513Z,92.12
2018-09-04T06:18:28.488Z,92.52
2018-09-04T06:19:28.483Z,93.02
2018-09-04T06:20:28.486Z,93.23
2018-09-04T06:21:28.480Z,92.93
2018-09-04T06:22:28.439Z,92.78
2018-09-04T06:23:28.444Z,92.22
2018-09-04T06:24:28.426Z,92.32
2018-09-04T06:25:28.451Z,92.88
2018-09-04T06:26:28.439Z,92.68
2018-09-04T06:27:28.388Z,92.98
2018-09-04T06:28:28.387Z,93.08
2018-09-04T06:29:28.471Z,92.78
2018-09-04T06:30:28.410Z,92.58
2018-09-04T06:31:28.373Z,91.97
2018-09-04T06:32:28.355Z,92.98
2018-09-04T06:33:28.380Z,92.23
2018-09-04T06:34:28.315Z,91.73
2018-09-04T06:35:28.329Z,91.73
2018-09-04T06:36:28.350Z,91.87
2018-09-04T06:37:28.317Z,92.03
2018-09-04T06:38:28.271Z,91.83
2018-09-04T06:39:28.259Z,92.03
2018-09-04T06:40:28.246Z,91.42
2018-09-04T06:41:28.323Z,91.63
2018-09-04T06:42:28.215Z,91.73
2018-09-04T06:43:28.208Z,91.63
2018-09-04T06:44:28.312Z,91.33
2018-09-04T06:45:28.210Z,91.42
2018-09-04T06:46:28.235Z,91.73
2018-09-04T06:47:28.226Z,91.33
2018-09-04T06:48:28.181Z,92.03
2018-09-04T06:49:28.196Z,91.42
2018-09-04T06:50:28.128Z,91.78
2018-09-04T06:51:28.130Z,91.08
2018-09-04T06:52:28.123Z,91.38
2018-09-04T06:53:28.113Z,91.18
2018-09-04T06:54:28.220Z,91.28
2018-09-04T06:55:28.080Z,91.89
2018-09-04T06:56:28.070Z,91.08
2018-09-04T06:57:28.078Z,91.58
2018-09-04T06:58:28.044Z,91.38
2018-09-04T06:59:28.117Z,91.78
2018-09-04T07:00:28.101Z,91.28
2018-09-04T07:01:28.053Z,91.69
2018-09-04T07:02:28.068Z,91.08
2018-09-04T07:03:28.007Z,91.69
2018-09-04T07:04:27.988Z,91.89
2018-09-04T07:05:27.980Z,91.99
2018-09-04T07:06:28.010Z,91.38
2018-09-04T07:07:27.949Z,91.08
2018-09-04T07:08:27.970Z,91.04
2018-09-04T07:09:27.927Z,91.38
2018-09-04T07:10:27.915Z,91.24
2018-09-04T07:11:27.923Z,91.49
2018-09-04T07:12:27.886Z,91.34
2018-09-04T07:13:27.898Z,91.39
2018-09-04T07:14:27.914Z,91.54
2018-09-04T07:15:27.858Z,90.89
2018-09-04T07:16:27.871Z,90.39
2018-09-04T07:17:27.822Z,89.99
2018-09-04T07:18:27.879Z,90.53
2018-09-04T07:19:27.855Z,90.89
2018-09-04T07:20:27.802Z,91.14
2018-09-04T07:21:27.791Z,90.09
2018-09-04T07:22:27.831Z,90.39
2018-09-04T07:23:27.838Z,90.19
2018-09-04T07:24:27.752Z,90.25
2018-09-04T07:25:27.762Z,90.55
2018-09-04T07:26:27.783Z,90.05
2018-09-04T07:27:27.776Z,90.45
2018-09-04T07:28:27.713Z,89.54
2018-09-04T07:29:27.709Z,89.64
2018-09-04T07:30:27.689Z,89.24
2018-09-04T07:31:27.700Z,89.44
2018-09-04T07:32:27.702Z,89.14
2018-09-04T07:33:27.723Z,88.74
2018-09-04T07:34:27.641Z,89.20
2018-09-04T07:35:27.638Z,89.50
2018-09-04T07:36:27.840Z,87.99
2018-09-04T07:37:27.703Z,88.90
2018-09-04T07:38:27.670Z,88.59
2018-09-04T07:39:27.589Z,88.09
2018-09-04T07:40:27.587Z,89.20
2018-09-04T07:41:27.579Z,88.29
2018-09-04T07:42:27.561Z,89.06
2018-09-04T07:43:27.697Z,88.55
2018-09-04T07:44:27.535Z,89.06
2018-09-04T07:45:27.684Z,89.15
2018-09-04T07:46:27.509Z,88.35
2018-09-04T07:47:27.501Z,88.45
2018-09-04T07:48:27.548Z,88.15
2018-09-04T07:49:27.534Z,87.10
2018-09-04T07:50:27.464Z,87.10
2018-09-04T07:51:27.453Z,87.21
2018-09-04T07:52:27.449Z,86.00
2018-09-04T07:53:27.626Z,87.21
2018-09-04T07:54:27.443Z,87.30
2018-09-04T07:55:27.413Z,86.30
2018-09-04T07:56:27.401Z,86.60
2018-09-04T07:57:27.389Z,86.30
2018-09-04T07:58:27.452Z,86.30
2018-09-04T07:59:27.376Z,87.06
2018-09-04T08:00:27.405Z,87.26
2018-09-04T08:01:27.433Z,87.26
2018-09-04T08:02:27.345Z,86.56
2018-09-04T08:03:27.320Z,86.16
2018-09-04T08:04:27.359Z,85.96
2018-09-04T08:05:27.296Z,85.86
2018-09-04T08:06:27.296Z,85.66
2018-09-04T08:07:27.352Z,85.86
2018-09-04T08:08:27.354Z,85.82
2018-09-04T08:09:27.275Z,85.82
2018-09-04T08:10:27.472Z,86.26
2018-09-04T08:11:27.299Z,86.12
2018-09-04T08:12:27.248Z,86.12
2018-09-04T08:13:27.389Z,85.92
2018-09-04T08:14:27.354Z,85.41
2018-09-04T08:15:27.321Z,84.37
2018-09-04T08:16:27.452Z,84.11
2018-09-04T08:17:27.297Z,85.11
2018-09-04T08:18:28.182Z,85.17
2018-09-04T08:19:27.328Z,85.47
2018-09-04T08:20:27.321Z,85.08
2018-09-04T08:21:27.245Z,84.27
2018-09-04T08:22:27.148Z,84.07
2018-09-04T08:23:27.103Z,84.57
2018-09-04T08:24:27.097Z,84.47
2018-09-04T08:25:27.115Z,85.47
2018-09-04T08:26:27.065Z,85.33
2018-09-04T08:27:27.054Z,84.03
2018-09-04T08:28:27.052Z,84.23
2018-09-04T08:29:27.109Z,84.74
2018-09-04T08:30:28.196Z,84.43
2018-09-04T08:31:27.094Z,83.73
2018-09-04T08:32:27.066Z,83.83
2018-09-04T08:33:27.019Z,83.53
2018-09-04T08:34:27.028Z,84.23
2018-09-04T08:35:27.052Z,83.83
2018-09-04T08:36:26.979Z,83.83
2018-09-04T08:37:27.074Z,84.33
2018-09-04T08:38:27.036Z,84.19
2018-09-04T08:39:27.043Z,83.59
2018-09-04T08:40:27.051Z,83.69
2018-09-04T08:41:27.085Z,83.49
2018-09-04T08:42:26.894Z,83.59
2018-09-04T08:43:26.879Z,84.09
2018-09-04T08:44:26.897Z,82.09
2018-09-04T08:45:26.852Z,82.29
2018-09-04T08:46:27.006Z,82.39
2018-09-04T08:47:26.893Z,81.95
2018-09-04T08:48:26.820Z,82.59
2018-09-04T08:49:26.848Z,81.88
2018-09-04T08:50:26.871Z,81.79
2018-09-04T08:51:26.782Z,82.55
2018-09-04T08:52:26.808Z,82.59
2018-09-04T08:53:26.811Z,82.45
2018-09-04T08:54:26.786Z,82.35
2018-09-04T08:55:26.787Z,82.15
2018-09-04T08:56:26.731Z,82.24
2018-09-04T08:57:26.721Z,81.74
2018-09-04T08:58:26.785Z,81.61
2018-09-04T08:59:26.700Z,81.01
2018-09-04T09:00:26.696Z,81.81
2018-09-04T09:01:26.676Z,82.41
2018-09-04T09:02:26.669Z,81.21
2018-09-04T09:03:26.678Z,81.81
2018-09-04T09:04:26.647Z,81.71
2018-09-04T09:05:26.679Z,81.11
2018-09-04T09:06:26.651Z,81.87
2018-09-04T09:07:26.632Z,81.67
2018-09-04T09:08:26.621Z,81.47
2018-09-04T09:09:26.596Z,81.01
2018-09-04T09:10:26.585Z,80.87
2018-09-04T09:11:26.573Z,80.27
2018-09-04T09:12:26.575Z,81.07
2018-09-04T09:13:26.564Z,80.77
2018-09-04T09:14:26.537Z,80.57
2018-09-04T09:15:26.539Z,80.67
2018-09-04T09:16:26.514Z,80.47
2018-09-04T09:17:26.527Z,80.17
2018-09-04T09:18:26.527Z,81.37
2018-09-04T09:19:26.483Z,80.53
2018-09-04T09:20:26.469Z,79.93
2018-09-04T09:21:26.457Z,80.87
2018-09-04T09:22:26.449Z,80.93
2018-09-04T09:23:26.454Z,80.03
2018-09-04T09:24:26.473Z,80.63
2018-09-04T09:25:26.418Z,79.93
2018-09-04T09:26:26.403Z,79.13
2018-09-04T09:27:26.393Z,78.73
2018-09-04T09:28:26.388Z,79.73
2018-09-04T09:29:26.389Z,80.63
2018-09-04T09:30:26.398Z,80.83
2018-09-04T09:31:26.349Z,79.09
2018-09-04T09:32:26.347Z,78.49
2018-09-04T09:33:26.328Z,79.03
2018-09-04T09:34:26.339Z,80.19
2018-09-04T09:35:26.318Z,80.29
2018-09-04T09:36:26.328Z,78.09
2018-09-04T09:37:26.289Z,77.59
2018-09-04T09:38:26.295Z,77.59
2018-09-04T09:39:26.294Z,77.79
2018-09-04T09:40:26.252Z,77.39
2018-09-04T09:41:26.248Z,78.19
2018-09-04T09:42:26.232Z,78.09
2018-09-04T09:43:26.223Z,78.19
2018-09-04T09:44:26.269Z,79.55
2018-09-04T09:45:26.200Z,77.99
2018-09-04T09:46:26.196Z,76.86
2018-09-04T09:47:26.176Z,77.95
2018-09-04T09:48:26.162Z,78.16
2018-09-04T09:49:26.158Z,78.25
2018-09-04T09:50:26.183Z,78.16
2018-09-04T09:51:26.176Z,78.22
2018-09-04T09:52:26.146Z,76.52
2018-09-04T09:53:26.352Z,75.92
2018-09-04T09:54:26.103Z,75.22
2018-09-04T09:55:26.140Z,76.22
2018-09-04T09:56:26.146Z,76.32
2018-09-04T09:57:26.094Z,76.62
2018-09-04T09:58:26.066Z,75.42
2018-09-04T09:59:26.114Z,75.68
2018-09-04T10:00:26.038Z,75.52
2018-09-04T10:01:26.058Z,74.68
2018-09-04T10:02:26.054Z,74.68
2018-09-04T10:03:26.006Z,75.18
2018-09-04T10:04:25.998Z,73.55
2018-09-04T10:05:25.990Z,73.95
2018-09-04T10:06:25.976Z,74.15
2018-09-04T10:07:25.983Z,73.75
2018-09-04T10:08:25.990Z,76.15
2018-09-04T10:09:25.939Z,74.41
2018-09-04T10:10:25.935Z,75.31
2018-09-04T10:11:25.917Z,72.92
2018-09-04T10:12:25.928Z,72.78
2018-09-04T10:13:25.898Z,72.19
2018-09-04T10:14:25.904Z,71.78
2018-09-04T10:15:25.877Z,72.32
2018-09-04T10:16:25.862Z,70.69
2018-09-04T10:17:25.888Z,71.22
2018-09-04T10:18:25.844Z,71.02
2018-09-04T10:19:25.832Z,71.12
2018-09-04T10:20:25.850Z,71.92
2018-09-04T10:21:25.928Z,71.12
2018-09-04T10:22:25.799Z,73.38
2018-09-04T10:23:25.814Z,72.38
2018-09-04T10:24:25.780Z,71.85
2018-09-04T10:25:25.771Z,72.65
2018-09-04T10:26:25.859Z,71.95
2018-09-04T10:27:25.746Z,71.15
2018-09-04T10:28:25.753Z,71.25
2018-09-04T10:29:25.727Z,70.65
2018-09-04T10:30:25.718Z,70.62
2018-09-04T10:31:25.706Z,70.82
2018-09-04T10:32:25.737Z,71.22
2018-09-04T10:33:25.699Z,73.31
2018-09-04T10:34:25.674Z,71.09
2018-09-04T10:35:25.661Z,71.32
2018-09-04T10:36:25.719Z,68.53
2018-09-04T10:37:25.669Z,70.09
2018-09-04T10:38:25.677Z,68.79
2018-09-04T10:39:25.623Z,69.39
2018-09-04T10:40:25.616Z,68.70
2018-09-04T10:41:25.603Z,69.20
2018-09-04T10:42:25.588Z,69.20
2018-09-04T10:43:25.608Z,70.85
2018-09-04T10:44:25.697Z,70.26
2018-09-04T10:45:25.558Z,69.06
2018-09-04T10:46:25.569Z,68.53
2018-09-04T10:47:25.539Z,67.54
2018-09-04T10:48:25.522Z,67.77
2018-09-04T10:49:25.550Z,70.22
2018-09-04T10:50:25.621Z,67.83
2018-09-04T10:51:25.504Z,67.74
2018-09-04T10:52:25.524Z,67.74
2018-09-04T10:53:25.504Z,68.43
2018-09-04T10:54:25.478Z,69.53
2018-09-04T10:55:25.449Z,68.04
2018-09-04T10:56:25.454Z,65.84
2018-09-04T10:57:25.484Z,66.87
2018-09-04T10:58:25.431Z,68.04
2018-09-04T10:59:25.415Z,68.37
2018-09-04T11:00:25.466Z,67.07
2018-09-04T11:01:25.498Z,66.67
2018-09-04T11:02:25.381Z,67.07
2018-09-04T11:03:25.363Z,67.74
2018-09-04T11:04:25.404Z,66.94
2018-09-04T11:05:25.356Z,68.33
2018-09-04T11:06:25.338Z,65.75
2018-09-04T11:07:25.324Z,65.55
2018-09-04T11:08:25.354Z,64.75
2018-09-04T11:10:42.541Z,66.35
2018-09-04T11:11:42.249Z,66.54
2018-09-04T11:13:03.636Z,68.63
2018-09-04T11:13:42.194Z,65.05
2018-09-04T11:14:42.842Z,63.85
2018-09-04T11:15:41.940Z,65.52
2018-09-04T11:16:42.021Z,65.22
2018-09-04T11:17:41.933Z,64.32
2018-09-04T11:18:41.961Z,65.42
2018-09-04T11:19:41.974Z,64.82
2018-09-04T11:20:42.061Z,65.05
2018-09-04T11:21:41.990Z,65.91
2018-09-04T11:22:41.907Z,65.81
2018-09-04T11:23:41.872Z,64.42
2018-09-04T11:24:41.966Z,65.48
2018-09-04T11:25:41.823Z,64.79
2018-09-04T11:26:41.813Z,64.89
2018-09-04T11:27:41.813Z,64.36
2018-09-04T11:28:41.810Z,64.56
2018-09-04T11:29:41.800Z,63.57
2018-09-04T11:30:41.907Z,64.76
2018-09-04T11:31:41.867Z,64.62
2018-09-04T11:32:41.772Z,64.62
2018-09-04T11:33:41.745Z,63.10
2018-09-04T11:34:41.929Z,61.42
2018-09-04T11:35:41.778Z,63.21
2018-09-04T11:36:41.755Z,61.79
2018-09-04T11:37:41.779Z,60.70
2018-09-04T11:38:41.713Z,61.99
2018-09-04T11:39:41.683Z,60.67
2018-09-04T11:40:41.723Z,60.27
2018-09-04T11:41:41.670Z,59.67
2018-09-04T11:42:41.655Z,59.84
2018-09-04T11:43:41.655Z,59.84
2018-09-04T11:44:41.632Z,57.93
2018-09-04T11:45:42.182Z,59.42
2018-09-04T11:46:41.610Z,60.31
2018-09-04T11:47:41.662Z,59.30
2018-09-04T11:48:44.731Z,60.19
2018-09-04T11:49:41.663Z,60.65
2018-09-04T11:50:41.579Z,60.62
2018-09-04T11:51:41.568Z,56.76
2018-09-04T11:53:38.359Z,55.55
2018-09-04T11:54:37.958Z,55.72
2018-09-04T11:55:37.811Z,56.51
2018-09-04T11:56:37.740Z,56.91
2018-09-04T11:57:37.741Z,55.79
2018-09-04T11:58:37.850Z,54.41
2018-09-04T11:59:37.783Z,57.74
2018-09-04T12:00:37.782Z,56.33
2018-09-04T12:01:37.653Z,53.17
2018-09-04T12:02:37.639Z,51.69
2018-09-04T12:03:37.646Z,56.13
2018-09-04T12:04:37.637Z,53.74
2018-09-04T12:05:37.617Z,52.75
2018-09-04T12:06:37.690Z,54.40
2018-09-04T12:07:37.575Z,52.92
2018-09-04T12:08:37.565Z,51.45
2018-09-04T12:09:37.553Z,51.32
2018-09-04T12:10:37.567Z,50.12
2018-09-04T12:11:37.536Z,50.21
2018-09-04T12:12:38.538Z,51.92
2018-09-04T12:14:49.949Z,50.90
2018-09-04T12:15:49.417Z,51.79
2018-09-04T12:16:49.458Z,52.36
2018-09-04T12:17:49.468Z,48.44
2018-09-04T12:18:49.354Z,50.12
2018-09-04T12:19:50.009Z,52.45
2018-09-04T12:20:49.438Z,48.61
2018-09-04T12:21:49.319Z,49.01
2018-09-04T12:22:49.333Z,50.19
2018-09-04T12:23:50.444Z,47.34
2018-09-04T12:24:49.565Z,48.71
2018-09-04T12:25:49.453Z,47.12
2018-09-04T12:26:49.530Z,49.50
2018-09-04T12:27:49.272Z,47.83
2018-09-04T12:28:49.297Z,46.25
2018-09-04T12:29:49.518Z,47.14
2018-09-04T12:30:49.307Z,47.83
2018-09-04T12:31:49.324Z,47.41
2018-09-04T12:32:49.302Z,50.07
2018-09-04T12:33:49.262Z,47.02
2018-09-04T12:34:49.236Z,46.38
2018-09-04T12:35:49.200Z,47.44
2018-09-04T12:36:49.362Z,46.36
2018-09-04T12:37:49.178Z,46.53
2018-09-04T12:38:49.697Z,45.24
2018-09-04T12:39:50.042Z,44.94
2018-09-04T12:40:49.162Z,44.84
2018-09-04T12:41:49.218Z,44.23
2018-09-04T12:42:49.128Z,43.19
2018-09-04T12:43:49.132Z,44.79
2018-09-04T12:44:49.120Z,44.98
2018-09-04T12:45:49.105Z,44.49
2018-09-04T12:46:49.125Z,46.83
2018-09-04T12:47:49.141Z,45.65
2018-09-04T12:48:49.076Z,44.47
2018-09-04T12:49:49.426Z,43.59
2018-09-04T12:53:40.142Z,44.18
2018-09-04T12:54:39.729Z,44.47
2018-09-04T12:55:39.703Z,45.16
2018-09-04T12:56:39.551Z,44.27
2018-09-04T12:57:49.230Z,44.45
2018-09-04T12:58:39.674Z,43.27
2018-09-04T12:59:39.657Z,43.76
2018-09-04T13:00:39.901Z,44.73
2018-09-04T13:01:39.542Z,44.41
2018-09-04T13:02:39.469Z,43.72
2018-09-04T13:03:39.573Z,42.43
2018-09-04T13:04:39.518Z,42.03
2018-09-04T13:05:39.474Z,42.33
2018-09-04T13:06:39.434Z,42.25
2018-09-04T13:07:39.567Z,42.27